City of London, United Kingdom
Current Conditions -  °F | °C
As of 11:20 PM on Tuesday 25 Nov 2014 (Local Time) from EGLC Reporting Station
Moderate Rain Moderate Rain  
Wind Chill: 44°   Ceiling: Unl
Heat Index: 48°   Visibility: 6mi
Dew Point: 45°   Wind: 10mph
Humidity: 87%   Direction: 90°E
Pressure: 30"   Gusts: NA
Location:  51.51°N, 0.09°W
Report Text: EGLC 252320Z AUTO 09009KT 9999 RA FEW022/// SCT030/// 09/07 Q1016
Loading
Personal Weather Stations






























Interactive Weather Map New forecast layout! Learn more

10-Day Weather Forecast

Advertisements
Track Severe Weather on mobile